PWSweather.com
Personal Weather Stations
Station Observations
PENICUIKWS
PenicuikGB

PenicuikGB

Lat: 55.830932, Lon: -3.224533000000065

Elevation: 166

Station Type: Fine Offset

http://weather.penicuik.org

High Low Average
Temperature 79.3°F26.3°C 51.4°F10.8°C 62.8°F17.1°C
Dew Point 64.1°F17.8°C 51.2°F10.7°C 59.0°F15.0°C
Winds 4.4 mph 7.1 kmh Calm Calm 1.0 mph E1.6 kmh E
Wind Gusts 6.0 mph9.7 kmh -- 1.0 mph1.6 kmh
Humidity 99% 54% 89%
Pressure 30.09 in1019.0 mb 30.06 in1017.9 mb -
Precipitation 0.46 in11.7 mm - -
Hour Temp Dew Point Humidity Winds Wind Gusts Pressure Precip Precip Rate Daily Precip Total
12:00 AM 53.2°F11.8°C 52.4°F11.3°C 97% 0.2 mph SW0.3 kmh SW 0.7 mph1.1 kmh 30.07 in1018.3 mb 0.00 in0.0 mm 0.00 in0.0 mm 0.00 in0.0 mm
12:15 AM 52.9°F11.6°C 52.1°F11.2°C 97% 0.2 mph S0.3 kmh S 0.7 mph1.1 kmh 30.08 in1018.6 mb 0.00 in0.0 mm 0.00 in0.0 mm 0.00 in0.0 mm
12:30 AM 53.1°F11.7°C 52.2°F11.2°C 97% Calm Calm -- 30.08 in1018.6 mb 0.00 in0.0 mm 0.00 in0.0 mm 0.00 in0.0 mm
12:45 AM 53.4°F11.9°C 52.9°F11.6°C 98% Calm Calm -- 30.08 in1018.6 mb 0.00 in0.0 mm 0.00 in0.0 mm 0.00 in0.0 mm
01:00 AM 54.1°F12.3°C 53.3°F11.8°C 97% Calm Calm -- 30.07 in1018.3 mb 0.00 in0.0 mm 0.00 in0.0 mm 0.00 in0.0 mm
01:15 AM 54.3°F12.4°C 53.5°F11.9°C 97% Calm Calm 0.7 mph1.1 kmh 30.08 in1018.6 mb 0.00 in0.0 mm 0.00 in0.0 mm 0.00 in0.0 mm
02:00 AM 54.5°F12.5°C 53.7°F12.1°C 97% Calm Calm -- 30.07 in1018.3 mb 0.00 in0.0 mm 0.00 in0.0 mm 0.00 in0.0 mm
02:15 AM 53.8°F12.1°C 53.0°F11.7°C 97% Calm Calm -- 30.07 in1018.3 mb 0.00 in0.0 mm 0.00 in0.0 mm 0.00 in0.0 mm
02:30 AM 53.1°F11.7°C 52.5°F11.4°C 98% Calm Calm -- 30.07 in1018.3 mb 0.00 in0.0 mm 0.00 in0.0 mm 0.00 in0.0 mm
02:45 AM 52.9°F11.6°C 52.3°F11.3°C 98% Calm Calm -- 30.07 in1018.3 mb 0.00 in0.0 mm 0.00 in0.0 mm 0.00 in0.0 mm
03:00 AM 51.8°F11.0°C 51.3°F10.7°C 98% Calm Calm -- 30.07 in1018.3 mb 0.00 in0.0 mm 0.00 in0.0 mm 0.00 in0.0 mm
03:15 AM 51.6°F10.9°C 51.4°F10.8°C 99% 0.3 mph S0.5 kmh S 1.6 mph2.6 kmh 30.07 in1018.3 mb 0.00 in0.0 mm 0.00 in0.0 mm 0.00 in0.0 mm
03:30 AM 51.4°F10.8°C 51.2°F10.7°C 99% 0.2 mph SW0.3 kmh SW 0.7 mph1.1 kmh 30.07 in1018.3 mb 0.00 in0.0 mm 0.00 in0.0 mm 0.00 in0.0 mm
03:45 AM 51.6°F10.9°C 51.4°F10.8°C 99% 0.3 mph SW0.5 kmh SW 0.7 mph1.1 kmh 30.07 in1018.3 mb 0.00 in0.0 mm 0.00 in0.0 mm 0.00 in0.0 mm
04:00 AM 51.8°F11.0°C 51.3°F10.7°C 98% 0.6 mph S1.0 kmh S 1.6 mph2.6 kmh 30.07 in1018.3 mb 0.00 in0.0 mm 0.00 in0.0 mm 0.00 in0.0 mm
04:15 AM 51.8°F11.0°C 51.3°F10.7°C 98% Calm Calm -- 30.07 in1018.3 mb 0.00 in0.0 mm 0.00 in0.0 mm 0.00 in0.0 mm
04:30 AM 52.9°F11.6°C 52.3°F11.3°C 98% Calm Calm -- 30.07 in1018.3 mb 0.00 in0.0 mm 0.00 in0.0 mm 0.00 in0.0 mm
04:45 AM 54.3°F12.4°C 53.5°F11.9°C 97% Calm Calm -- 30.07 in1018.3 mb 0.00 in0.0 mm 0.00 in0.0 mm 0.00 in0.0 mm
05:00 AM 56.3°F13.5°C 55.8°F13.2°C 98% 0.3 mph SSE0.5 kmh SSE 1.6 mph2.6 kmh 30.07 in1018.3 mb 0.00 in0.0 mm 0.00 in0.0 mm 0.00 in0.0 mm
05:15 AM 57.7°F14.3°C 56.9°F13.8°C 97% Calm Calm -- 30.07 in1018.3 mb 0.00 in0.0 mm 0.00 in0.0 mm 0.00 in0.0 mm
05:30 AM 57.4°F14.1°C 56.3°F13.5°C 96% 0.5 mph N0.8 kmh N 1.6 mph2.6 kmh 30.08 in1018.6 mb 0.00 in0.0 mm 0.00 in0.0 mm 0.00 in0.0 mm
05:45 AM 57.4°F14.1°C 56.0°F13.3°C 95% 0.2 mph N0.3 kmh N 0.7 mph1.1 kmh 30.07 in1018.3 mb 0.00 in0.0 mm 0.00 in0.0 mm 0.00 in0.0 mm
06:00 AM 57.7°F14.3°C 56.3°F13.5°C 95% 0.2 mph N0.3 kmh N 0.7 mph1.1 kmh 30.09 in1019.0 mb 0.00 in0.0 mm 0.00 in0.0 mm 0.00 in0.0 mm
06:15 AM 60.1°F15.6°C 58.4°F14.7°C 94% Calm Calm -- 30.08 in1018.6 mb 0.00 in0.0 mm 0.00 in0.0 mm 0.00 in0.0 mm
06:45 AM 61.7°F16.5°C 58.1°F14.5°C 88% 1.1 mph SSE1.8 kmh SSE 2.2 mph3.5 kmh 30.08 in1018.6 mb 0.00 in0.0 mm 0.00 in0.0 mm 0.00 in0.0 mm
07:00 AM 64.0°F17.8°C 60.4°F15.8°C 88% 0.1 mph S0.2 kmh S 0.7 mph1.1 kmh 30.08 in1018.6 mb 0.00 in0.0 mm 0.00 in0.0 mm 0.00 in0.0 mm
07:15 AM 66.4°F19.1°C 61.1°F16.2°C 83% 1.2 mph N1.9 kmh N 2.2 mph3.5 kmh 30.09 in1019.0 mb 0.00 in0.0 mm 0.00 in0.0 mm 0.00 in0.0 mm
07:30 AM 68.4°F20.2°C 61.3°F16.3°C 78% 1.5 mph N2.4 kmh N 2.2 mph3.5 kmh 30.08 in1018.6 mb 0.00 in0.0 mm 0.00 in0.0 mm 0.00 in0.0 mm
07:45 AM 72.0°F22.2°C 62.5°F16.9°C 72% 1.5 mph NNE2.4 kmh NNE 2.2 mph3.5 kmh 30.07 in1018.3 mb 0.00 in0.0 mm 0.00 in0.0 mm 0.00 in0.0 mm
08:00 AM 74.1°F23.4°C 62.9°F17.2°C 68% 1.5 mph NNE2.4 kmh NNE 2.2 mph3.5 kmh 30.08 in1018.6 mb 0.00 in0.0 mm 0.00 in0.0 mm 0.00 in0.0 mm
08:15 AM 78.6°F25.9°C 64.1°F17.8°C 61% 1.4 mph SW2.3 kmh SW 2.2 mph3.5 kmh 30.08 in1018.6 mb 0.00 in0.0 mm 0.00 in0.0 mm 0.00 in0.0 mm
08:30 AM 78.8°F26.0°C 62.8°F17.1°C 58% 1.4 mph N2.3 kmh N 2.2 mph3.5 kmh 30.07 in1018.3 mb 0.00 in0.0 mm 0.00 in0.0 mm 0.00 in0.0 mm
08:45 AM 78.8°F26.0°C 63.3°F17.4°C 59% 1.9 mph NE3.1 kmh NE 3.1 mph5.0 kmh 30.07 in1018.3 mb 0.00 in0.0 mm 0.00 in0.0 mm 0.00 in0.0 mm
09:00 AM 78.3°F25.7°C 63.3°F17.4°C 60% 3.2 mph N5.1 kmh N 4.5 mph7.2 kmh 30.07 in1018.3 mb 0.00 in0.0 mm 0.00 in0.0 mm 0.00 in0.0 mm
09:15 AM 79.0°F26.1°C 62.5°F16.9°C 57% 3.1 mph NNE5.0 kmh NNE 6.0 mph9.7 kmh 30.08 in1018.6 mb 0.00 in0.0 mm 0.00 in0.0 mm 0.00 in0.0 mm
09:30 AM 79.3°F26.3°C 61.3°F16.3°C 54% 2.8 mph NW4.5 kmh NW 3.8 mph6.1 kmh 30.08 in1018.6 mb 0.00 in0.0 mm 0.00 in0.0 mm 0.00 in0.0 mm
09:45 AM 76.1°F24.5°C 61.7°F16.5°C 61% 3.5 mph NNE5.6 kmh NNE 4.5 mph7.2 kmh 30.07 in1018.3 mb 0.00 in0.0 mm 0.00 in0.0 mm 0.00 in0.0 mm
10:00 AM 71.8°F22.1°C 60.7°F15.9°C 68% 2.7 mph NNE4.3 kmh NNE 3.8 mph6.1 kmh 30.08 in1018.6 mb 0.00 in0.0 mm 0.00 in0.0 mm 0.00 in0.0 mm
10:15 AM 71.6°F22.0°C 61.3°F16.3°C 70% 2.4 mph NNE3.9 kmh NNE 3.8 mph6.1 kmh 30.08 in1018.6 mb 0.00 in0.0 mm 0.00 in0.0 mm 0.00 in0.0 mm
10:30 AM 71.2°F21.8°C 62.6°F17.0°C 74% 2.5 mph N4.0 kmh N 5.4 mph8.7 kmh 30.08 in1018.6 mb 0.00 in0.0 mm 0.00 in0.0 mm 0.00 in0.0 mm
10:45 AM 70.7°F21.5°C 62.0°F16.7°C 74% 3.2 mph NNE5.1 kmh NNE 5.4 mph8.7 kmh 30.08 in1018.6 mb 0.00 in0.0 mm 0.00 in0.0 mm 0.00 in0.0 mm
11:00 AM 70.5°F21.4°C 62.2°F16.8°C 75% 2.6 mph N4.2 kmh N 4.5 mph7.2 kmh 30.08 in1018.6 mb 0.00 in0.0 mm 0.00 in0.0 mm 0.00 in0.0 mm
11:15 AM 70.9°F21.6°C 61.8°F16.6°C 73% 3.3 mph N5.3 kmh N 4.5 mph7.2 kmh 30.07 in1018.3 mb 0.00 in0.0 mm 0.00 in0.0 mm 0.00 in0.0 mm
11:45 AM 71.1°F21.7°C 62.4°F16.9°C 74% 2.8 mph N4.5 kmh N 3.8 mph6.1 kmh 30.07 in1018.3 mb 0.00 in0.0 mm 0.00 in0.0 mm 0.00 in0.0 mm
12:00 PM 71.8°F22.1°C 61.5°F16.4°C 70% 4.4 mph N7.1 kmh N 5.4 mph8.7 kmh 30.07 in1018.3 mb 0.00 in0.0 mm 0.00 in0.0 mm 0.00 in0.0 mm
12:30 PM 71.8°F22.1°C 61.5°F16.4°C 70% 1.8 mph NNE2.9 kmh NNE 3.1 mph5.0 kmh 30.07 in1018.3 mb 0.00 in0.0 mm 0.00 in0.0 mm 0.00 in0.0 mm
12:45 PM 71.8°F22.1°C 61.5°F16.4°C 70% 0.7 mph WNW1.1 kmh WNW 1.6 mph2.6 kmh 30.07 in1018.3 mb 0.00 in0.0 mm 0.00 in0.0 mm 0.00 in0.0 mm
01:00 PM 69.4°F20.8°C 60.8°F16.0°C 74% 1.3 mph WSW2.1 kmh WSW 2.2 mph3.5 kmh 30.07 in1018.3 mb 0.00 in0.0 mm 0.00 in0.0 mm 0.00 in0.0 mm
01:15 PM 67.3°F19.6°C 61.6°F16.4°C 82% 0.4 mph NW0.6 kmh NW 1.6 mph2.6 kmh 30.07 in1018.3 mb 0.06 in1.5 mm 0.24 in6.1 mm 0.06 in1.5 mm
01:45 PM 62.8°F17.1°C 60.1°F15.6°C 91% 2.4 mph SW3.9 kmh SW 5.4 mph8.7 kmh 30.09 in1019.0 mb 0.31 in7.9 mm 0.50 in12.7 mm 0.31 in7.9 mm
02:00 PM 61.7°F16.5°C 59.4°F15.2°C 92% 0.7 mph S1.1 kmh S 2.2 mph3.5 kmh 30.09 in1019.0 mb 0.34 in8.6 mm 0.04 in1.0 mm 0.34 in8.6 mm
02:15 PM 61.7°F16.5°C 59.7°F15.4°C 93% 0.6 mph NNE1.0 kmh NNE 1.6 mph2.6 kmh 30.08 in1018.6 mb 0.30 in7.6 mm 0.00 in0.0 mm 0.35 in8.9 mm
02:30 PM 62.4°F16.9°C 60.7°F15.9°C 94% 0.6 mph S1.0 kmh S 1.6 mph2.6 kmh 30.07 in1018.3 mb 0.12 in3.0 mm 0.00 in0.0 mm 0.37 in9.4 mm
02:45 PM 63.7°F17.6°C 61.9°F16.6°C 94% 0.3 mph W0.5 kmh W 1.6 mph2.6 kmh 30.09 in1019.0 mb 0.05 in1.3 mm 0.00 in0.0 mm 0.37 in9.4 mm
03:00 PM 63.7°F17.6°C 61.9°F16.6°C 94% 0.1 mph S0.2 kmh S 0.7 mph1.1 kmh 30.08 in1018.6 mb 0.02 in0.5 mm 0.00 in0.0 mm 0.37 in9.4 mm
03:15 PM 63.5°F17.5°C 61.8°F16.6°C 94% 0.1 mph S0.2 kmh S 0.7 mph1.1 kmh 30.08 in1018.6 mb 0.02 in0.5 mm 0.00 in0.0 mm 0.38 in9.7 mm
03:30 PM 63.9°F17.7°C 62.1°F16.7°C 94% 0.2 mph SW0.3 kmh SW 0.7 mph1.1 kmh 30.08 in1018.6 mb 0.02 in0.5 mm 0.00 in0.0 mm 0.39 in9.9 mm
03:45 PM 63.7°F17.6°C 61.9°F16.6°C 94% 0.2 mph SW0.3 kmh SW 0.7 mph1.1 kmh 30.07 in1018.3 mb 0.04 in1.0 mm 0.08 in2.0 mm 0.40 in10.2 mm
04:00 PM 63.9°F17.7°C 62.1°F16.7°C 94% 0.1 mph NW0.2 kmh NW 0.7 mph1.1 kmh 30.08 in1018.6 mb 0.04 in1.0 mm 0.00 in0.0 mm 0.40 in10.2 mm
04:45 PM 63.3°F17.4°C 61.6°F16.4°C 94% Calm Calm -- 30.06 in1017.9 mb 0.05 in1.3 mm 0.01 in0.3 mm 0.45 in11.4 mm
05:00 PM 63.7°F17.6°C 62.2°F16.8°C 95% 0.1 mph SW0.2 kmh SW 0.7 mph1.1 kmh 30.06 in1017.9 mb 0.06 in1.5 mm 0.01 in0.3 mm 0.46 in11.7 mm
05:15 PM 63.9°F17.7°C 62.4°F16.9°C 95% 0.2 mph W0.3 kmh W 0.7 mph1.1 kmh 30.07 in1018.3 mb 0.04 in1.0 mm 0.00 in0.0 mm 0.46 in11.7 mm
05:30 PM 63.1°F17.3°C 61.7°F16.5°C 95% 0.6 mph N1.0 kmh N 1.6 mph2.6 kmh 30.08 in1018.6 mb 0.01 in0.3 mm 0.00 in0.0 mm 0.46 in11.7 mm
05:45 PM 63.0°F17.2°C 61.5°F16.4°C 95% 0.3 mph N0.5 kmh N 0.7 mph1.1 kmh 30.06 in1017.9 mb 0.01 in0.3 mm 0.00 in0.0 mm 0.46 in11.7 mm
06:00 PM 62.8°F17.1°C 61.3°F16.3°C 95% Calm Calm -- 30.07 in1018.3 mb 0.00 in0.0 mm 0.00 in0.0 mm 0.46 in11.7 mm
06:30 PM 63.1°F17.3°C 61.7°F16.5°C 95% Calm Calm -- 30.07 in1018.3 mb 0.00 in0.0 mm 0.00 in0.0 mm 0.46 in11.7 mm
06:45 PM 63.3°F17.4°C 61.9°F16.6°C 95% Calm Calm -- 30.06 in1017.9 mb 0.00 in0.0 mm 0.00 in0.0 mm 0.46 in11.7 mm
07:00 PM 63.3°F17.4°C 61.9°F16.6°C 95% 0.1 mph SW0.2 kmh SW 0.7 mph1.1 kmh 30.07 in1018.3 mb 0.00 in0.0 mm 0.00 in0.0 mm 0.46 in11.7 mm
07:15 PM 63.7°F17.6°C 62.2°F16.8°C 95% Calm Calm -- 30.06 in1017.9 mb 0.00 in0.0 mm 0.00 in0.0 mm 0.46 in11.7 mm
07:30 PM 63.7°F17.6°C 62.2°F16.8°C 95% Calm Calm -- 30.07 in1018.3 mb 0.00 in0.0 mm 0.00 in0.0 mm 0.46 in11.7 mm
07:45 PM 63.1°F17.3°C 61.7°F16.5°C 95% Calm Calm -- 30.07 in1018.3 mb 0.00 in0.0 mm 0.00 in0.0 mm 0.46 in11.7 mm
08:15 PM 62.6°F17.0°C 61.2°F16.2°C 95% Calm Calm -- 30.07 in1018.3 mb 0.00 in0.0 mm 0.00 in0.0 mm 0.46 in11.7 mm
08:30 PM 62.4°F16.9°C 61.3°F16.3°C 96% Calm Calm 0.7 mph1.1 kmh 30.07 in1018.3 mb 0.00 in0.0 mm 0.00 in0.0 mm 0.46 in11.7 mm
08:45 PM 62.1°F16.7°C 60.9°F16.1°C 96% Calm Calm -- 30.07 in1018.3 mb 0.00 in0.0 mm 0.00 in0.0 mm 0.46 in11.7 mm
09:00 PM 61.7°F16.5°C 60.6°F15.9°C 96% Calm Calm -- 30.08 in1018.6 mb 0.00 in0.0 mm 0.00 in0.0 mm 0.46 in11.7 mm
09:15 PM 61.5°F16.4°C 60.4°F15.8°C 96% Calm Calm -- 30.07 in1018.3 mb 0.00 in0.0 mm 0.00 in0.0 mm 0.46 in11.7 mm
09:30 PM 61.2°F16.2°C 60.3°F15.7°C 97% Calm Calm -- 30.07 in1018.3 mb 0.00 in0.0 mm 0.00 in0.0 mm 0.46 in11.7 mm
09:45 PM 61.0°F16.1°C 60.1°F15.6°C 97% Calm Calm -- 30.07 in1018.3 mb 0.00 in0.0 mm 0.00 in0.0 mm 0.46 in11.7 mm
10:00 PM 60.8°F16.0°C 60.0°F15.6°C 97% Calm Calm -- 30.07 in1018.3 mb 0.00 in0.0 mm 0.00 in0.0 mm 0.46 in11.7 mm
10:15 PM 60.4°F15.8°C 59.9°F15.5°C 98% Calm Calm -- 30.07 in1018.3 mb 0.00 in0.0 mm 0.00 in0.0 mm 0.46 in11.7 mm
10:30 PM 59.4°F15.2°C 58.5°F14.7°C 97% Calm Calm -- 30.07 in1018.3 mb 0.00 in0.0 mm 0.00 in0.0 mm 0.46 in11.7 mm
11:00 PM 57.9°F14.4°C 57.4°F14.1°C 98% Calm Calm -- 30.07 in1018.3 mb 0.00 in0.0 mm 0.00 in0.0 mm 0.38 in9.7 mm
11:15 PM 57.4°F14.1°C 56.8°F13.8°C 98% 0.2 mph S0.3 kmh S 0.7 mph1.1 kmh 30.07 in1018.3 mb 0.00 in0.0 mm 0.00 in0.0 mm 0.38 in9.7 mm
11:30 PM 57.0°F13.9°C 56.8°F13.8°C 99% Calm Calm -- 30.07 in1018.3 mb 0.00 in0.0 mm 0.00 in0.0 mm 0.38 in9.7 mm
11:45 PM 56.5°F13.6°C 56.2°F13.4°C 99% Calm Calm 0.7 mph1.1 kmh 30.07 in1018.3 mb 0.00 in0.0 mm 0.00 in0.0 mm 0.38 in9.7 mm